sensor_id;sensor_type;location;lat;lon;timestamp;temperature;humidity
12682;DHT22;6405;59.208;18.216;2022-08-25T00:01:17;9.00;99.90
12682;DHT22;6405;59.208;18.216;2022-08-25T00:03:43;9.00;99.90
12682;DHT22;6405;59.208;18.216;2022-08-25T00:06:11;9.00;99.90
12682;DHT22;6405;59.208;18.216;2022-08-25T00:08:38;8.90;99.90
12682;DHT22;6405;59.208;18.216;2022-08-25T00:11:11;8.90;99.90
12682;DHT22;6405;59.208;18.216;2022-08-25T00:13:43;8.90;99.90
12682;DHT22;6405;59.208;18.216;2022-08-25T00:16:11;8.80;99.90
12682;DHT22;6405;59.208;18.216;2022-08-25T00:18:40;8.80;99.90
12682;DHT22;6405;59.208;18.216;2022-08-25T00:21:07;8.80;99.90
12682;DHT22;6405;59.208;18.216;2022-08-25T00:23:33;8.80;99.90
12682;DHT22;6405;59.208;18.216;2022-08-25T00:26:01;8.80;99.90
12682;DHT22;6405;59.208;18.216;2022-08-25T00:28:27;8.80;99.90
12682;DHT22;6405;59.208;18.216;2022-08-25T00:30:56;8.70;99.90
12682;DHT22;6405;59.208;18.216;2022-08-25T00:33:25;8.70;99.90
12682;DHT22;6405;59.208;18.216;2022-08-25T00:35:52;8.60;99.90
12682;DHT22;6405;59.208;18.216;2022-08-25T00:38:19;8.60;99.90
12682;DHT22;6405;59.208;18.216;2022-08-25T00:40:48;8.60;99.90
12682;DHT22;6405;59.208;18.216;2022-08-25T00:46:11;8.60;99.90
12682;DHT22;6405;59.208;18.216;2022-08-25T00:48:38;8.60;99.90
12682;DHT22;6405;59.208;18.216;2022-08-25T00:51:07;8.60;99.90
12682;DHT22;6405;59.208;18.216;2022-08-25T00:53:36;8.60;99.90
12682;DHT22;6405;59.208;18.216;2022-08-25T00:56:03;8.60;99.90
12682;DHT22;6405;59.208;18.216;2022-08-25T00:58:32;8.60;99.90
12682;DHT22;6405;59.208;18.216;2022-08-25T01:01:00;8.60;99.90
12682;DHT22;6405;59.208;18.216;2022-08-25T01:03:29;8.50;99.90
12682;DHT22;6405;59.208;18.216;2022-08-25T01:05:56;8.50;99.90
12682;DHT22;6405;59.208;18.216;2022-08-25T01:08:25;8.50;99.90
12682;DHT22;6405;59.208;18.216;2022-08-25T01:10:54;8.50;99.90
12682;DHT22;6405;59.208;18.216;2022-08-25T01:13:27;8.50;99.90
12682;DHT22;6405;59.208;18.216;2022-08-25T01:15:57;8.60;99.90
12682;DHT22;6405;59.208;18.216;2022-08-25T01:18:26;8.50;99.90
12682;DHT22;6405;59.208;18.216;2022-08-25T01:20:57;8.50;99.90
12682;DHT22;6405;59.208;18.216;2022-08-25T01:23:25;8.40;99.90
12682;DHT22;6405;59.208;18.216;2022-08-25T01:28:23;8.40;99.90
12682;DHT22;6405;59.208;18.216;2022-08-25T01:30:48;8.40;99.90
12682;DHT22;6405;59.208;18.216;2022-08-25T01:33:14;8.40;99.90
12682;DHT22;6405;59.208;18.216;2022-08-25T01:35:42;8.40;99.90
12682;DHT22;6405;59.208;18.216;2022-08-25T01:38:09;8.40;99.90
12682;DHT22;6405;59.208;18.216;2022-08-25T01:40:37;8.40;99.90
12682;DHT22;6405;59.208;18.216;2022-08-25T01:43:16;8.40;99.90
12682;DHT22;6405;59.208;18.216;2022-08-25T01:45:47;8.30;99.90
12682;DHT22;6405;59.208;18.216;2022-08-25T01:48:15;8.40;99.90
12682;DHT22;6405;59.208;18.216;2022-08-25T01:50:43;8.30;99.90
12682;DHT22;6405;59.208;18.216;2022-08-25T01:53:28;8.30;99.90
12682;DHT22;6405;59.208;18.216;2022-08-25T01:55:54;8.30;99.90
12682;DHT22;6405;59.208;18.216;2022-08-25T01:58:29;8.30;99.90
12682;DHT22;6405;59.208;18.216;2022-08-25T02:00:58;8.30;99.90
12682;DHT22;6405;59.208;18.216;2022-08-25T02:03:26;8.30;99.90
12682;DHT22;6405;59.208;18.216;2022-08-25T02:05:54;8.20;99.90
12682;DHT22;6405;59.208;18.216;2022-08-25T02:08:23;8.20;99.90
12682;DHT22;6405;59.208;18.216;2022-08-25T02:10:51;8.20;99.90
12682;DHT22;6405;59.208;18.216;2022-08-25T02:13:18;8.20;99.90
12682;DHT22;6405;59.208;18.216;2022-08-25T02:15:48;8.20;99.90
12682;DHT22;6405;59.208;18.216;2022-08-25T02:18:15;8.20;99.90
12682;DHT22;6405;59.208;18.216;2022-08-25T02:20:42;8.20;99.90
12682;DHT22;6405;59.208;18.216;2022-08-25T02:23:09;8.30;99.90
12682;DHT22;6405;59.208;18.216;2022-08-25T02:25:38;8.20;99.90
12682;DHT22;6405;59.208;18.216;2022-08-25T02:28:07;8.20;99.90
12682;DHT22;6405;59.208;18.216;2022-08-25T02:30:35;8.10;99.90
12682;DHT22;6405;59.208;18.216;2022-08-25T02:33:02;8.10;99.90
12682;DHT22;6405;59.208;18.216;2022-08-25T02:35:29;8.10;99.90
12682;DHT22;6405;59.208;18.216;2022-08-25T02:37:56;8.10;99.90
12682;DHT22;6405;59.208;18.216;2022-08-25T02:40:22;8.10;99.90
12682;DHT22;6405;59.208;18.216;2022-08-25T02:42:49;8.10;99.90
12682;DHT22;6405;59.208;18.216;2022-08-25T02:45:17;8.10;99.90
12682;DHT22;6405;59.208;18.216;2022-08-25T02:47:43;8.10;99.90
12682;DHT22;6405;59.208;18.216;2022-08-25T02:50:10;8.10;99.90
12682;DHT22;6405;59.208;18.216;2022-08-25T02:52:38;8.10;99.90
12682;DHT22;6405;59.208;18.216;2022-08-25T02:55:08;8.10;99.90
12682;DHT22;6405;59.208;18.216;2022-08-25T02:57:35;8.10;99.90
12682;DHT22;6405;59.208;18.216;2022-08-25T03:00:03;8.20;99.90
12682;DHT22;6405;59.208;18.216;2022-08-25T03:02:39;8.00;99.90
12682;DHT22;6405;59.208;18.216;2022-08-25T03:05:08;8.00;99.90
12682;DHT22;6405;59.208;18.216;2022-08-25T03:07:36;8.00;99.90
12682;DHT22;6405;59.208;18.216;2022-08-25T03:10:13;8.00;99.90
12682;DHT22;6405;59.208;18.216;2022-08-25T03:12:40;8.00;99.90
12682;DHT22;6405;59.208;18.216;2022-08-25T03:15:11;8.00;99.90
12682;DHT22;6405;59.208;18.216;2022-08-25T03:17:38;8.00;99.90
12682;DHT22;6405;59.208;18.216;2022-08-25T03:20:05;8.00;99.90
12682;DHT22;6405;59.208;18.216;2022-08-25T03:22:31;7.90;99.90
12682;DHT22;6405;59.208;18.216;2022-08-25T03:24:58;7.90;99.90
12682;DHT22;6405;59.208;18.216;2022-08-25T03:27:42;7.90;99.90
12682;DHT22;6405;59.208;18.216;2022-08-25T03:30:10;7.90;99.90
12682;DHT22;6405;59.208;18.216;2022-08-25T03:32:38;7.90;99.90
12682;DHT22;6405;59.208;18.216;2022-08-25T03:35:05;7.90;99.90
12682;DHT22;6405;59.208;18.216;2022-08-25T03:37:31;7.90;99.90
12682;DHT22;6405;59.208;18.216;2022-08-25T03:39:57;7.90;99.90
12682;DHT22;6405;59.208;18.216;2022-08-25T03:42:23;7.90;99.90
12682;DHT22;6405;59.208;18.216;2022-08-25T03:44:51;7.90;99.90
12682;DHT22;6405;59.208;18.216;2022-08-25T03:47:17;7.90;99.90
12682;DHT22;6405;59.208;18.216;2022-08-25T03:49:44;7.90;99.90
12682;DHT22;6405;59.208;18.216;2022-08-25T03:52:12;7.90;99.90
12682;DHT22;6405;59.208;18.216;2022-08-25T03:54:39;7.90;99.90
12682;DHT22;6405;59.208;18.216;2022-08-25T03:57:04;7.90;99.90
12682;DHT22;6405;59.208;18.216;2022-08-25T03:59:32;7.90;99.90
12682;DHT22;6405;59.208;18.216;2022-08-25T04:01:59;8.00;99.90
12682;DHT22;6405;59.208;18.216;2022-08-25T04:04:27;7.90;99.90
12682;DHT22;6405;59.208;18.216;2022-08-25T04:06:54;8.00;99.90
12682;DHT22;6405;59.208;18.216;2022-08-25T04:09:22;8.00;99.90
12682;DHT22;6405;59.208;18.216;2022-08-25T04:11:49;8.00;99.90
12682;DHT22;6405;59.208;18.216;2022-08-25T04:14:15;8.10;99.90
12682;DHT22;6405;59.208;18.216;2022-08-25T04:16:42;8.00;99.90
12682;DHT22;6405;59.208;18.216;2022-08-25T04:19:10;8.00;99.90
12682;DHT22;6405;59.208;18.216;2022-08-25T04:21:38;8.10;99.90
12682;DHT22;6405;59.208;18.216;2022-08-25T04:24:07;8.10;99.90
12682;DHT22;6405;59.208;18.216;2022-08-25T04:26:43;8.10;99.90
12682;DHT22;6405;59.208;18.216;2022-08-25T04:29:10;8.10;99.90
12682;DHT22;6405;59.208;18.216;2022-08-25T04:31:42;8.20;99.90
12682;DHT22;6405;59.208;18.216;2022-08-25T04:34:09;8.20;99.90
12682;DHT22;6405;59.208;18.216;2022-08-25T04:36:35;8.20;99.90
12682;DHT22;6405;59.208;18.216;2022-08-25T04:39:02;8.20;99.90
12682;DHT22;6405;59.208;18.216;2022-08-25T04:41:28;8.30;99.90
12682;DHT22;6405;59.208;18.216;2022-08-25T04:43:58;8.30;99.90
12682;DHT22;6405;59.208;18.216;2022-08-25T04:46:30;8.30;99.90
12682;DHT22;6405;59.208;18.216;2022-08-25T04:48:58;8.40;99.90
12682;DHT22;6405;59.208;18.216;2022-08-25T04:51:28;8.40;99.90
12682;DHT22;6405;59.208;18.216;2022-08-25T04:53:57;8.40;99.90
12682;DHT22;6405;59.208;18.216;2022-08-25T04:56:23;8.50;99.90
12682;DHT22;6405;59.208;18.216;2022-08-25T04:58:52;8.50;99.90
12682;DHT22;6405;59.208;18.216;2022-08-25T05:01:20;8.60;99.90
12682;DHT22;6405;59.208;18.216;2022-08-25T05:03:51;8.60;99.90
12682;DHT22;6405;59.208;18.216;2022-08-25T05:06:18;8.70;99.90
12682;DHT22;6405;59.208;18.216;2022-08-25T05:08:45;8.80;99.90
12682;DHT22;6405;59.208;18.216;2022-08-25T05:11:14;8.80;99.90
12682;DHT22;6405;59.208;18.216;2022-08-25T05:13:46;8.90;99.90
12682;DHT22;6405;59.208;18.216;2022-08-25T05:16:15;9.00;99.90
12682;DHT22;6405;59.208;18.216;2022-08-25T05:18:44;9.20;99.90
12682;DHT22;6405;59.208;18.216;2022-08-25T05:21:16;9.10;99.90
12682;DHT22;6405;59.208;18.216;2022-08-25T05:23:44;9.20;99.90
12682;DHT22;6405;59.208;18.216;2022-08-25T05:26:16;9.20;99.90
12682;DHT22;6405;59.208;18.216;2022-08-25T05:28:44;9.30;99.90
12682;DHT22;6405;59.208;18.216;2022-08-25T05:31:13;9.40;99.90
12682;DHT22;6405;59.208;18.216;2022-08-25T05:33:41;9.50;99.90
12682;DHT22;6405;59.208;18.216;2022-08-25T05:36:11;9.60;99.90
12682;DHT22;6405;59.208;18.216;2022-08-25T05:38:40;9.70;99.90
12682;DHT22;6405;59.208;18.216;2022-08-25T05:41:16;9.80;99.90
12682;DHT22;6405;59.208;18.216;2022-08-25T05:43:45;10.00;99.90
12682;DHT22;6405;59.208;18.216;2022-08-25T05:46:14;10.10;99.90
12682;DHT22;6405;59.208;18.216;2022-08-25T05:48:41;10.20;99.90
12682;DHT22;6405;59.208;18.216;2022-08-25T05:51:10;10.30;99.90
12682;DHT22;6405;59.208;18.216;2022-08-25T05:53:40;10.40;99.90
12682;DHT22;6405;59.208;18.216;2022-08-25T05:56:08;10.60;99.90
12682;DHT22;6405;59.208;18.216;2022-08-25T05:58:36;10.80;99.90
12682;DHT22;6405;59.208;18.216;2022-08-25T06:01:05;11.00;99.90
12682;DHT22;6405;59.208;18.216;2022-08-25T06:03:51;11.10;99.90
12682;DHT22;6405;59.208;18.216;2022-08-25T06:06:23;11.20;99.90
12682;DHT22;6405;59.208;18.216;2022-08-25T06:08:50;11.40;99.90
12682;DHT22;6405;59.208;18.216;2022-08-25T06:11:18;11.60;99.90
12682;DHT22;6405;59.208;18.216;2022-08-25T06:13:46;11.60;99.90
12682;DHT22;6405;59.208;18.216;2022-08-25T06:16:13;11.70;99.90
12682;DHT22;6405;59.208;18.216;2022-08-25T06:18:42;11.80;99.90
12682;DHT22;6405;59.208;18.216;2022-08-25T06:21:13;12.00;99.90
12682;DHT22;6405;59.208;18.216;2022-08-25T06:23:41;12.10;99.90
12682;DHT22;6405;59.208;18.216;2022-08-25T06:26:10;12.20;99.90
12682;DHT22;6405;59.208;18.216;2022-08-25T06:28:38;12.30;99.90
12682;DHT22;6405;59.208;18.216;2022-08-25T06:31:06;12.50;99.90
12682;DHT22;6405;59.208;18.216;2022-08-25T06:33:33;12.60;99.90
12682;DHT22;6405;59.208;18.216;2022-08-25T06:36:02;12.70;99.90
12682;DHT22;6405;59.208;18.216;2022-08-25T06:38:29;12.80;99.90
12682;DHT22;6405;59.208;18.216;2022-08-25T06:40:56;12.90;99.90
12682;DHT22;6405;59.208;18.216;2022-08-25T06:43:26;13.00;99.90
12682;DHT22;6405;59.208;18.216;2022-08-25T06:45:53;13.00;99.90
12682;DHT22;6405;59.208;18.216;2022-08-25T06:48:20;13.10;99.90
12682;DHT22;6405;59.208;18.216;2022-08-25T06:50:49;13.20;99.90
12682;DHT22;6405;59.208;18.216;2022-08-25T06:53:17;13.20;99.90
12682;DHT22;6405;59.208;18.216;2022-08-25T06:55:43;13.30;99.90
12682;DHT22;6405;59.208;18.216;2022-08-25T06:58:11;13.30;99.90
12682;DHT22;6405;59.208;18.216;2022-08-25T07:00:37;13.40;99.90
12682;DHT22;6405;59.208;18.216;2022-08-25T07:03:05;13.40;99.90
12682;DHT22;6405;59.208;18.216;2022-08-25T07:05:31;13.50;99.90
12682;DHT22;6405;59.208;18.216;2022-08-25T07:07:58;13.60;99.90
12682;DHT22;6405;59.208;18.216;2022-08-25T07:10:26;13.70;99.90
12682;DHT22;6405;59.208;18.216;2022-08-25T07:12:53;13.80;99.90
12682;DHT22;6405;59.208;18.216;2022-08-25T07:15:21;13.90;99.90
12682;DHT22;6405;59.208;18.216;2022-08-25T07:17:48;14.00;99.90
12682;DHT22;6405;59.208;18.216;2022-08-25T07:20:16;14.10;99.90
12682;DHT22;6405;59.208;18.216;2022-08-25T07:22:43;14.30;99.90
12682;DHT22;6405;59.208;18.216;2022-08-25T07:25:10;14.30;99.90
12682;DHT22;6405;59.208;18.216;2022-08-25T07:27:38;14.50;99.90
12682;DHT22;6405;59.208;18.216;2022-08-25T07:30:07;14.60;99.90
12682;DHT22;6405;59.208;18.216;2022-08-25T07:32:34;14.80;99.90
12682;DHT22;6405;59.208;18.216;2022-08-25T07:35:01;15.10;99.90
12682;DHT22;6405;59.208;18.216;2022-08-25T07:37:49;15.00;99.90
12682;DHT22;6405;59.208;18.216;2022-08-25T07:40:22;15.10;99.90
12682;DHT22;6405;59.208;18.216;2022-08-25T07:42:50;15.10;99.90
12682;DHT22;6405;59.208;18.216;2022-08-25T07:45:18;15.20;99.90
12682;DHT22;6405;59.208;18.216;2022-08-25T07:47:46;15.30;99.90
12682;DHT22;6405;59.208;18.216;2022-08-25T07:50:12;15.30;99.90
12682;DHT22;6405;59.208;18.216;2022-08-25T07:52:40;15.30;99.90
12682;DHT22;6405;59.208;18.216;2022-08-25T07:55:06;15.40;99.90
12682;DHT22;6405;59.208;18.216;2022-08-25T07:57:33;15.50;99.90
12682;DHT22;6405;59.208;18.216;2022-08-25T08:00:01;15.60;99.90
12682;DHT22;6405;59.208;18.216;2022-08-25T08:02:27;15.70;99.90
12682;DHT22;6405;59.208;18.216;2022-08-25T08:04:54;15.80;99.90
12682;DHT22;6405;59.208;18.216;2022-08-25T08:07:24;16.00;99.90
12682;DHT22;6405;59.208;18.216;2022-08-25T08:09:55;16.10;99.90
12682;DHT22;6405;59.208;18.216;2022-08-25T08:12:23;16.30;99.90
12682;DHT22;6405;59.208;18.216;2022-08-25T08:14:50;16.40;99.90
12682;DHT22;6405;59.208;18.216;2022-08-25T08:17:19;16.60;99.90
12682;DHT22;6405;59.208;18.216;2022-08-25T08:19:47;16.90;99.90
12682;DHT22;6405;59.208;18.216;2022-08-25T08:22:14;17.20;99.90
12682;DHT22;6405;59.208;18.216;2022-08-25T08:24:43;17.70;99.90
12682;DHT22;6405;59.208;18.216;2022-08-25T08:27:11;18.00;99.90
12682;DHT22;6405;59.208;18.216;2022-08-25T08:29:41;18.30;99.90
12682;DHT22;6405;59.208;18.216;2022-08-25T08:32:09;18.50;99.90
12682;DHT22;6405;59.208;18.216;2022-08-25T08:34:40;18.70;99.90
12682;DHT22;6405;59.208;18.216;2022-08-25T08:37:08;18.90;99.90
12682;DHT22;6405;59.208;18.216;2022-08-25T08:39:35;19.00;99.90
12682;DHT22;6405;59.208;18.216;2022-08-25T08:42:23;19.10;99.90
12682;DHT22;6405;59.208;18.216;2022-08-25T08:45:03;19.30;99.90
12682;DHT22;6405;59.208;18.216;2022-08-25T08:50:36;19.60;99.90
12682;DHT22;6405;59.208;18.216;2022-08-25T08:53:26;19.80;99.90
12682;DHT22;6405;59.208;18.216;2022-08-25T08:55:57;20.00;99.90
12682;DHT22;6405;59.208;18.216;2022-08-25T08:58:36;20.00;99.90
12682;DHT22;6405;59.208;18.216;2022-08-25T09:01:07;20.10;99.90
12682;DHT22;6405;59.208;18.216;2022-08-25T09:03:50;20.20;99.90
12682;DHT22;6405;59.208;18.216;2022-08-25T09:06:27;20.20;99.90
12682;DHT22;6405;59.208;18.216;2022-08-25T09:08:58;20.20;99.90
12682;DHT22;6405;59.208;18.216;2022-08-25T09:11:46;20.30;99.90
12682;DHT22;6405;59.208;18.216;2022-08-25T09:14:36;20.30;99.90
12682;DHT22;6405;59.208;18.216;2022-08-25T09:20:17;20.20;99.90
12682;DHT22;6405;59.208;18.216;2022-08-25T09:25:32;20.20;99.90
12682;DHT22;6405;59.208;18.216;2022-08-25T09:30:41;20.00;99.90
12682;DHT22;6405;59.208;18.216;2022-08-25T09:33:14;20.10;99.90
12682;DHT22;6405;59.208;18.216;2022-08-25T09:35:44;20.10;99.90
12682;DHT22;6405;59.208;18.216;2022-08-25T09:38:12;20.00;99.90
12682;DHT22;6405;59.208;18.216;2022-08-25T09:40:43;20.10;99.90
12682;DHT22;6405;59.208;18.216;2022-08-25T09:43:28;20.00;99.90
12682;DHT22;6405;59.208;18.216;2022-08-25T09:46:32;20.10;99.90
12682;DHT22;6405;59.208;18.216;2022-08-25T09:48:57;20.20;99.90
12682;DHT22;6405;59.208;18.216;2022-08-25T09:51:38;20.30;99.90
12682;DHT22;6405;59.208;18.216;2022-08-25T09:57:07;20.30;99.90
12682;DHT22;6405;59.208;18.216;2022-08-25T09:59:35;20.50;99.90
12682;DHT22;6405;59.208;18.216;2022-08-25T10:02:15;20.50;99.90
12682;DHT22;6405;59.208;18.216;2022-08-25T10:04:46;20.70;99.90
12682;DHT22;6405;59.208;18.216;2022-08-25T10:07:23;20.80;99.90
12682;DHT22;6405;59.208;18.216;2022-08-25T10:10:20;20.90;99.90
12682;DHT22;6405;59.208;18.216;2022-08-25T10:12:48;21.00;99.90
12682;DHT22;6405;59.208;18.216;2022-08-25T10:15:18;21.30;99.90
12682;DHT22;6405;59.208;18.216;2022-08-25T10:17:46;21.30;99.90
12682;DHT22;6405;59.208;18.216;2022-08-25T10:20:21;21.40;99.90
12682;DHT22;6405;59.208;18.216;2022-08-25T10:22:50;21.50;99.90
12682;DHT22;6405;59.208;18.216;2022-08-25T10:25:26;21.50;99.90
12682;DHT22;6405;59.208;18.216;2022-08-25T10:35:57;21.60;99.90
12682;DHT22;6405;59.208;18.216;2022-08-25T10:43:53;21.60;99.90
12682;DHT22;6405;59.208;18.216;2022-08-25T10:46:48;21.60;99.90
12682;DHT22;6405;59.208;18.216;2022-08-25T10:49:25;21.60;99.90
12682;DHT22;6405;59.208;18.216;2022-08-25T10:52:02;21.80;99.90
12682;DHT22;6405;59.208;18.216;2022-08-25T11:08:31;22.10;99.90
12682;DHT22;6405;59.208;18.216;2022-08-25T11:11:09;22.20;99.90
12682;DHT22;6405;59.208;18.216;2022-08-25T11:13:45;22.10;99.90
12682;DHT22;6405;59.208;18.216;2022-08-25T11:16:17;22.20;99.90
12682;DHT22;6405;59.208;18.216;2022-08-25T11:18:56;22.20;99.90
12682;DHT22;6405;59.208;18.216;2022-08-25T11:21:42;22.30;99.90
12682;DHT22;6405;59.208;18.216;2022-08-25T11:26:55;22.40;99.90
12682;DHT22;6405;59.208;18.216;2022-08-25T11:29:27;22.40;99.90
12682;DHT22;6405;59.208;18.216;2022-08-25T11:31:59;22.60;99.90
12682;DHT22;6405;59.208;18.216;2022-08-25T11:34:35;22.70;99.90
12682;DHT22;6405;59.208;18.216;2022-08-25T11:37:13;22.70;99.90
12682;DHT22;6405;59.208;18.216;2022-08-25T11:40:19;22.90;99.90
12682;DHT22;6405;59.208;18.216;2022-08-25T11:42:59;22.70;99.90
12682;DHT22;6405;59.208;18.216;2022-08-25T11:51:04;22.80;99.90
12682;DHT22;6405;59.208;18.216;2022-08-25T11:53:34;22.80;99.90
12682;DHT22;6405;59.208;18.216;2022-08-25T11:56:05;22.80;99.90
12682;DHT22;6405;59.208;18.216;2022-08-25T11:58:53;22.80;99.90
12682;DHT22;6405;59.208;18.216;2022-08-25T12:04:32;23.10;99.90
12682;DHT22;6405;59.208;18.216;2022-08-25T12:12:37;23.20;99.90
12682;DHT22;6405;59.208;18.216;2022-08-25T12:15:25;23.20;99.90
12682;DHT22;6405;59.208;18.216;2022-08-25T12:21:07;23.30;99.90
12682;DHT22;6405;59.208;18.216;2022-08-25T12:26:56;23.40;99.90
12682;DHT22;6405;59.208;18.216;2022-08-25T12:29:46;23.50;99.90
12682;DHT22;6405;59.208;18.216;2022-08-25T12:32:21;23.50;99.90
12682;DHT22;6405;59.208;18.216;2022-08-25T12:43:12;23.50;99.90
12682;DHT22;6405;59.208;18.216;2022-08-25T12:45:53;23.50;99.90
12682;DHT22;6405;59.208;18.216;2022-08-25T12:51:00;23.60;99.90
12682;DHT22;6405;59.208;18.216;2022-08-25T12:53:42;23.60;99.90
12682;DHT22;6405;59.208;18.216;2022-08-25T12:56:18;23.60;99.90
12682;DHT22;6405;59.208;18.216;2022-08-25T12:58:56;23.60;99.90
12682;DHT22;6405;59.208;18.216;2022-08-25T13:01:54;23.70;99.90
12682;DHT22;6405;59.208;18.216;2022-08-25T13:07:15;23.70;99.90
12682;DHT22;6405;59.208;18.216;2022-08-25T13:12:21;23.70;99.90
12682;DHT22;6405;59.208;18.216;2022-08-25T13:14:54;23.80;99.90
12682;DHT22;6405;59.208;18.216;2022-08-25T13:17:33;23.80;99.90
12682;DHT22;6405;59.208;18.216;2022-08-25T13:20:19;23.90;99.90
12682;DHT22;6405;59.208;18.216;2022-08-25T13:22:51;23.80;99.90
12682;DHT22;6405;59.208;18.216;2022-08-25T13:25:23;23.90;99.90
12682;DHT22;6405;59.208;18.216;2022-08-25T13:27:59;23.90;99.90
12682;DHT22;6405;59.208;18.216;2022-08-25T13:30:29;23.90;99.90
12682;DHT22;6405;59.208;18.216;2022-08-25T13:32:56;23.90;99.90
12682;DHT22;6405;59.208;18.216;2022-08-25T13:35:29;23.90;99.90
12682;DHT22;6405;59.208;18.216;2022-08-25T13:38:17;23.90;99.90
12682;DHT22;6405;59.208;18.216;2022-08-25T13:40:44;24.10;99.90
12682;DHT22;6405;59.208;18.216;2022-08-25T13:43:13;24.10;99.90
12682;DHT22;6405;59.208;18.216;2022-08-25T13:45:42;24.00;99.90
12682;DHT22;6405;59.208;18.216;2022-08-25T13:48:11;24.10;99.90
12682;DHT22;6405;59.208;18.216;2022-08-25T13:50:40;24.10;99.90
12682;DHT22;6405;59.208;18.216;2022-08-25T13:53:20;24.10;99.90
12682;DHT22;6405;59.208;18.216;2022-08-25T13:55:49;24.10;99.90
12682;DHT22;6405;59.208;18.216;2022-08-25T13:58:22;24.20;99.90
12682;DHT22;6405;59.208;18.216;2022-08-25T14:01:11;24.10;99.90
12682;DHT22;6405;59.208;18.216;2022-08-25T14:03:41;24.20;99.90
12682;DHT22;6405;59.208;18.216;2022-08-25T14:06:24;24.10;99.90
12682;DHT22;6405;59.208;18.216;2022-08-25T14:09:14;24.20;99.90
12682;DHT22;6405;59.208;18.216;2022-08-25T14:11:47;24.10;99.90
12682;DHT22;6405;59.208;18.216;2022-08-25T14:16:57;24.00;99.90
12682;DHT22;6405;59.208;18.216;2022-08-25T14:19:25;24.00;99.90
12682;DHT22;6405;59.208;18.216;2022-08-25T14:21:52;23.90;99.90
12682;DHT22;6405;59.208;18.216;2022-08-25T14:24:22;23.90;99.90
12682;DHT22;6405;59.208;18.216;2022-08-25T14:26:49;23.90;99.90
12682;DHT22;6405;59.208;18.216;2022-08-25T14:29:16;23.90;99.90
12682;DHT22;6405;59.208;18.216;2022-08-25T14:31:43;23.90;99.90
12682;DHT22;6405;59.208;18.216;2022-08-25T14:34:21;23.80;99.90
12682;DHT22;6405;59.208;18.216;2022-08-25T14:36:49;23.70;99.90
12682;DHT22;6405;59.208;18.216;2022-08-25T14:39:17;23.70;99.90
12682;DHT22;6405;59.208;18.216;2022-08-25T14:41:44;23.50;99.90
12682;DHT22;6405;59.208;18.216;2022-08-25T14:44:16;23.50;99.90
12682;DHT22;6405;59.208;18.216;2022-08-25T14:46:48;23.50;99.90
12682;DHT22;6405;59.208;18.216;2022-08-25T14:49:19;23.30;99.90
12682;DHT22;6405;59.208;18.216;2022-08-25T14:51:47;23.30;99.90
12682;DHT22;6405;59.208;18.216;2022-08-25T14:54:14;23.20;99.90
12682;DHT22;6405;59.208;18.216;2022-08-25T14:56:45;23.10;99.90
12682;DHT22;6405;59.208;18.216;2022-08-25T14:59:14;23.00;99.90
12682;DHT22;6405;59.208;18.216;2022-08-25T15:01:42;22.90;99.90
12682;DHT22;6405;59.208;18.216;2022-08-25T15:04:19;22.70;99.90
12682;DHT22;6405;59.208;18.216;2022-08-25T15:06:51;22.60;99.90
12682;DHT22;6405;59.208;18.216;2022-08-25T15:09:19;22.60;99.90
12682;DHT22;6405;59.208;18.216;2022-08-25T15:11:52;22.50;99.90
12682;DHT22;6405;59.208;18.216;2022-08-25T15:14:23;22.30;99.90
12682;DHT22;6405;59.208;18.216;2022-08-25T15:16:53;22.20;99.90
12682;DHT22;6405;59.208;18.216;2022-08-25T15:19:23;22.20;99.90
12682;DHT22;6405;59.208;18.216;2022-08-25T15:21:50;22.10;99.90
12682;DHT22;6405;59.208;18.216;2022-08-25T15:24:17;22.00;99.90
12682;DHT22;6405;59.208;18.216;2022-08-25T15:29:11;21.80;99.90
12682;DHT22;6405;59.208;18.216;2022-08-25T15:31:39;21.70;99.90
12682;DHT22;6405;59.208;18.216;2022-08-25T15:34:06;21.50;99.90
12682;DHT22;6405;59.208;18.216;2022-08-25T15:36:35;21.40;99.90
12682;DHT22;6405;59.208;18.216;2022-08-25T15:39:04;21.30;99.90
12682;DHT22;6405;59.208;18.216;2022-08-25T15:41:31;21.20;99.90
12682;DHT22;6405;59.208;18.216;2022-08-25T15:43:57;21.10;99.90
12682;DHT22;6405;59.208;18.216;2022-08-25T15:46:26;21.00;99.90
12682;DHT22;6405;59.208;18.216;2022-08-25T15:48:57;20.90;99.90
12682;DHT22;6405;59.208;18.216;2022-08-25T15:51:26;20.80;99.90
12682;DHT22;6405;59.208;18.216;2022-08-25T15:53:54;20.70;99.90
12682;DHT22;6405;59.208;18.216;2022-08-25T15:56:22;20.60;99.90
12682;DHT22;6405;59.208;18.216;2022-08-25T15:58:49;20.60;99.90
12682;DHT22;6405;59.208;18.216;2022-08-25T16:01:18;20.50;99.90
12682;DHT22;6405;59.208;18.216;2022-08-25T16:03:45;20.40;99.90
12682;DHT22;6405;59.208;18.216;2022-08-25T16:06:13;20.30;99.90
12682;DHT22;6405;59.208;18.216;2022-08-25T16:08:40;20.30;99.90
12682;DHT22;6405;59.208;18.216;2022-08-25T16:11:18;20.20;99.90
12682;DHT22;6405;59.208;18.216;2022-08-25T16:13:47;20.20;99.90
12682;DHT22;6405;59.208;18.216;2022-08-25T16:16:15;20.10;99.90
12682;DHT22;6405;59.208;18.216;2022-08-25T16:18:42;20.00;99.90
12682;DHT22;6405;59.208;18.216;2022-08-25T16:21:12;19.90;99.90
12682;DHT22;6405;59.208;18.216;2022-08-25T16:23:39;19.90;99.90
12682;DHT22;6405;59.208;18.216;2022-08-25T16:26:08;19.80;99.90
12682;DHT22;6405;59.208;18.216;2022-08-25T16:28:39;19.70;99.90
12682;DHT22;6405;59.208;18.216;2022-08-25T16:31:08;19.70;99.90
12682;DHT22;6405;59.208;18.216;2022-08-25T16:33:34;19.50;99.90
12682;DHT22;6405;59.208;18.216;2022-08-25T16:36:06;19.40;99.90
12682;DHT22;6405;59.208;18.216;2022-08-25T16:38:37;19.40;99.90
12682;DHT22;6405;59.208;18.216;2022-08-25T16:41:09;19.30;99.90
12682;DHT22;6405;59.208;18.216;2022-08-25T16:43:36;19.20;99.90
12682;DHT22;6405;59.208;18.216;2022-08-25T16:46:06;19.10;99.90
12682;DHT22;6405;59.208;18.216;2022-08-25T16:48:35;19.10;99.90
12682;DHT22;6405;59.208;18.216;2022-08-25T16:51:07;19.00;99.90
12682;DHT22;6405;59.208;18.216;2022-08-25T16:53:35;18.90;99.90
12682;DHT22;6405;59.208;18.216;2022-08-25T16:56:20;18.80;99.90
12682;DHT22;6405;59.208;18.216;2022-08-25T16:58:51;18.70;99.90
12682;DHT22;6405;59.208;18.216;2022-08-25T17:01:20;18.60;99.90
12682;DHT22;6405;59.208;18.216;2022-08-25T17:03:53;18.60;99.90
12682;DHT22;6405;59.208;18.216;2022-08-25T17:06:22;18.50;99.90
12682;DHT22;6405;59.208;18.216;2022-08-25T17:08:50;18.40;99.90
12682;DHT22;6405;59.208;18.216;2022-08-25T17:11:29;18.30;99.90
12682;DHT22;6405;59.208;18.216;2022-08-25T17:13:58;18.20;99.90
12682;DHT22;6405;59.208;18.216;2022-08-25T17:16:30;18.10;99.90
12682;DHT22;6405;59.208;18.216;2022-08-25T17:18:59;18.00;99.90
12682;DHT22;6405;59.208;18.216;2022-08-25T17:21:29;17.90;99.90
12682;DHT22;6405;59.208;18.216;2022-08-25T17:23:56;17.80;99.90
12682;DHT22;6405;59.208;18.216;2022-08-25T17:26:25;17.70;99.90
12682;DHT22;6405;59.208;18.216;2022-08-25T17:28:53;17.60;99.90
12682;DHT22;6405;59.208;18.216;2022-08-25T17:31:20;17.50;99.90